createdAt,value
2018-10-07T00:00:47.364Z,30.8
2018-10-07T00:01:48.898Z,30.3
2018-10-07T00:02:50.457Z,31.3
2018-10-07T00:03:51.835Z,30.3
2018-10-07T00:04:53.384Z,30.8
2018-10-07T00:05:54.749Z,30.8
2018-10-07T00:06:56.343Z,30.8
2018-10-07T00:07:57.720Z,30.8
2018-10-07T00:08:59.273Z,30.8
2018-10-07T00:10:00.818Z,31.3
2018-10-07T00:11:02.372Z,30.3
2018-10-07T00:12:03.914Z,30.8
2018-10-07T00:13:05.449Z,30.8
2018-10-07T00:14:07.000Z,30.8
2018-10-07T00:15:08.391Z,30.3
2018-10-07T00:16:09.935Z,30.3
2018-10-07T00:17:11.516Z,30.3
2018-10-07T00:18:12.897Z,30.8
2018-10-07T00:19:14.278Z,30.8
2018-10-07T00:20:15.659Z,29.8
2018-10-07T00:21:17.198Z,31.3
2018-10-07T00:22:18.739Z,30.3
2018-10-07T00:23:20.299Z,30.8
2018-10-07T00:24:21.853Z,29.8
2018-10-07T00:25:23.401Z,30.3
2018-10-07T00:26:24.950Z,30.8
2018-10-07T00:27:26.344Z,30.8
2018-10-07T00:28:27.888Z,30.8
2018-10-07T00:29:29.263Z,30.8
2018-10-07T00:30:30.640Z,30.3
2018-10-07T00:31:32.027Z,30.8
2018-10-07T00:32:33.560Z,30.3
2018-10-07T00:33:35.133Z,30.3
2018-10-07T00:34:36.688Z,30.3
2018-10-07T00:35:38.250Z,30.3
2018-10-07T00:36:39.854Z,30.8
2018-10-07T00:37:41.397Z,30.3
2018-10-07T00:38:42.948Z,30.3
2018-10-07T00:39:44.499Z,30.3
2018-10-07T00:40:45.875Z,30.8
2018-10-07T00:41:47.422Z,30.3
2018-10-07T00:42:48.981Z,30.3
2018-10-07T00:43:50.198Z,30.8
2018-10-07T00:44:51.747Z,30.3
2018-10-07T00:45:53.301Z,30.3
2018-10-07T00:46:55.226Z,29.8
2018-10-07T00:47:56.828Z,30.8
2018-10-07T00:48:58.221Z,30.3
2018-10-07T00:49:59.617Z,30.8
2018-10-07T00:51:00.984Z,30.3
2018-10-07T00:52:02.527Z,29.8
2018-10-07T00:53:04.069Z,30.3
2018-10-07T00:54:05.627Z,29.8
2018-10-07T00:55:07.160Z,29.3
2018-10-07T00:56:08.730Z,30.3
2018-10-07T00:57:10.285Z,30.3
2018-10-07T00:58:11.834Z,29.8
2018-10-07T00:59:13.204Z,29.8
2018-10-07T01:00:14.744Z,30.8
2018-10-07T01:01:16.123Z,30.3
2018-10-07T01:02:17.511Z,29.8
2018-10-07T01:03:19.102Z,30.3
2018-10-07T01:04:20.665Z,30.3
2018-10-07T01:05:22.223Z,29.8
2018-10-07T01:06:23.277Z,30.3
2018-10-07T01:07:24.677Z,30.8
2018-10-07T01:08:26.055Z,29.3
2018-10-07T01:09:27.612Z,26.9
2018-10-07T01:10:29.172Z,25.9
2018-10-07T01:11:30.550Z,25.4
2018-10-07T01:12:32.103Z,25.9
2018-10-07T01:13:33.646Z,26.4
2018-10-07T01:14:35.209Z,26.9
2018-10-07T01:15:36.593Z,28.3
2018-10-07T01:16:38.158Z,30.3
2018-10-07T01:17:39.699Z,31.8
2018-10-07T01:18:41.241Z,32.7
2018-10-07T01:19:42.639Z,33.2
2018-10-07T01:20:44.183Z,33.7
2018-10-07T01:21:45.549Z,35.2
2018-10-07T01:22:47.090Z,35.7
2018-10-07T01:23:48.636Z,36.2
2018-10-07T01:24:50.171Z,37.1
2018-10-07T01:25:51.558Z,37.6
2018-10-07T01:26:53.092Z,38.1
2018-10-07T01:27:54.640Z,37.1
2018-10-07T01:28:56.182Z,38.1
2018-10-07T01:29:57.405Z,38.1
2018-10-07T01:30:58.940Z,38.6
2018-10-07T01:32:00.528Z,38.6
2018-10-07T01:33:01.904Z,38.6
2018-10-07T01:34:03.469Z,38.1
2018-10-07T01:35:04.685Z,38.6
2018-10-07T01:36:06.254Z,38.6
2018-10-07T01:37:07.818Z,39.1
2018-10-07T01:38:09.348Z,39.1
2018-10-07T01:39:10.761Z,39.1
2018-10-07T01:40:12.311Z,39.1
2018-10-07T01:41:13.705Z,38.6
2018-10-07T01:42:15.251Z,39.1
2018-10-07T01:43:16.636Z,39.1
2018-10-07T01:44:18.169Z,39.1
2018-10-07T01:45:19.708Z,39.1
2018-10-07T01:46:21.229Z,39.6
2018-10-07T01:47:22.769Z,39.1
2018-10-07T01:48:24.319Z,39.1
2018-10-07T01:49:25.714Z,39.1
2018-10-07T01:50:27.261Z,39.6
2018-10-07T01:51:28.800Z,40.6
2018-10-07T01:52:30.332Z,39.1
2018-10-07T01:53:31.876Z,39.1
2018-10-07T01:54:33.431Z,39.1
2018-10-07T01:55:34.980Z,39.6
2018-10-07T01:56:36.373Z,39.1
2018-10-07T01:57:37.917Z,38.6
2018-10-07T01:58:39.478Z,39.6
2018-10-07T01:59:41.011Z,40.1
2018-10-07T02:00:42.429Z,39.1
2018-10-07T02:01:43.825Z,39.1
2018-10-07T02:02:45.359Z,39.1
2018-10-07T02:03:46.905Z,39.1
2018-10-07T02:04:48.460Z,39.6
2018-10-07T02:05:49.841Z,39.6
2018-10-07T02:06:51.398Z,39.6
2018-10-07T02:07:52.597Z,40.1
2018-10-07T02:08:54.124Z,39.6
2018-10-07T02:09:55.681Z,38.6
2018-10-07T02:10:57.209Z,39.1
2018-10-07T02:11:58.758Z,39.6
2018-10-07T02:12:59.990Z,39.1
2018-10-07T02:14:02.001Z,40.1
2018-10-07T02:15:03.890Z,38.6
2018-10-07T02:16:05.437Z,39.1
2018-10-07T02:17:07.084Z,39.1
2018-10-07T02:18:08.711Z,39.1
2018-10-07T02:19:10.292Z,39.1
2018-10-07T02:20:11.848Z,38.6
2018-10-07T02:21:13.221Z,38.6
2018-10-07T02:22:14.764Z,38.6
2018-10-07T02:23:16.142Z,39.1
2018-10-07T02:24:17.529Z,38.6
2018-10-07T02:25:18.912Z,39.1
2018-10-07T02:26:20.287Z,38.6
2018-10-07T02:27:21.839Z,38.6
2018-10-07T02:28:23.389Z,38.1
2018-10-07T02:29:24.939Z,38.6
2018-10-07T02:30:26.570Z,38.6
2018-10-07T02:31:27.789Z,38.6
2018-10-07T02:32:29.186Z,38.6
2018-10-07T02:33:30.728Z,38.1
2018-10-07T02:34:32.297Z,38.1
2018-10-07T02:35:33.851Z,38.6
2018-10-07T02:36:35.416Z,37.6
2018-10-07T02:37:36.958Z,39.1
2018-10-07T02:38:38.508Z,38.1
2018-10-07T02:39:39.728Z,38.6
2018-10-07T02:40:41.288Z,38.6
2018-10-07T02:41:42.680Z,38.1
2018-10-07T02:42:44.277Z,38.1
2018-10-07T02:43:45.813Z,38.6
2018-10-07T02:44:47.341Z,38.1
2018-10-07T02:45:48.872Z,38.1
2018-10-07T02:46:50.448Z,38.6
2018-10-07T02:47:51.839Z,38.1
2018-10-07T02:48:53.239Z,38.1
2018-10-07T02:49:54.647Z,38.1
2018-10-07T02:50:56.207Z,37.1
2018-10-07T02:51:57.744Z,38.1
2018-10-07T02:52:59.118Z,37.6
2018-10-07T02:54:00.668Z,38.1
2018-10-07T02:55:02.239Z,38.1
2018-10-07T02:56:03.784Z,37.1
2018-10-07T02:57:05.177Z,37.1
2018-10-07T02:58:06.748Z,37.6
2018-10-07T02:59:08.298Z,37.1
2018-10-07T03:00:09.838Z,38.6
2018-10-07T03:01:11.070Z,37.6
2018-10-07T03:02:12.668Z,38.1
2018-10-07T03:03:14.202Z,37.6
2018-10-07T03:04:15.756Z,38.1
2018-10-07T03:05:16.994Z,37.6
2018-10-07T03:06:18.472Z,37.6
2018-10-07T03:07:20.019Z,36.7
2018-10-07T03:08:21.460Z,36.7
2018-10-07T03:09:22.685Z,38.1
2018-10-07T03:10:24.253Z,37.6
2018-10-07T03:11:25.779Z,37.1
2018-10-07T03:12:27.318Z,36.7
2018-10-07T03:13:28.890Z,37.1
2018-10-07T03:14:30.100Z,37.6
2018-10-07T03:15:31.490Z,38.1
2018-10-07T03:16:33.039Z,37.6
2018-10-07T03:17:34.586Z,38.1
2018-10-07T03:18:36.127Z,37.6
2018-10-07T03:19:37.739Z,38.6
2018-10-07T03:20:39.268Z,37.6
2018-10-07T03:21:40.830Z,37.6
2018-10-07T03:22:42.375Z,37.6
2018-10-07T03:23:43.931Z,37.6
2018-10-07T03:24:45.488Z,37.1
2018-10-07T03:25:47.026Z,37.6
2018-10-07T03:26:48.410Z,37.6
2018-10-07T03:27:49.952Z,38.1
2018-10-07T03:28:51.500Z,38.6
2018-10-07T03:29:53.057Z,38.6
2018-10-07T03:30:54.625Z,37.6
2018-10-07T03:31:56.186Z,38.6
2018-10-07T03:32:57.565Z,39.1
2018-10-07T03:33:59.100Z,38.6
2018-10-07T03:35:00.669Z,38.6
2018-10-07T03:36:02.224Z,39.1
2018-10-07T03:37:03.637Z,38.6
2018-10-07T03:38:05.189Z,39.6
2018-10-07T03:39:06.459Z,40.1
2018-10-07T03:40:07.798Z,40.6
2018-10-07T03:41:09.193Z,39.1
2018-10-07T03:42:10.736Z,39.6
2018-10-07T03:43:12.296Z,39.6
2018-10-07T03:44:13.848Z,39.6
2018-10-07T03:45:15.403Z,39.6
2018-10-07T03:46:16.955Z,40.1
2018-10-07T03:47:18.509Z,39.1
2018-10-07T03:48:19.880Z,39.6
2018-10-07T03:49:21.443Z,39.6
2018-10-07T03:50:22.976Z,39.1
2018-10-07T03:51:24.521Z,39.6
2018-10-07T03:52:26.070Z,39.6
2018-10-07T03:53:27.611Z,39.6
2018-10-07T03:54:28.988Z,39.6
2018-10-07T03:55:30.559Z,39.6
2018-10-07T03:56:32.125Z,40.1
2018-10-07T03:57:33.676Z,39.6
2018-10-07T03:58:35.076Z,39.6
2018-10-07T03:59:36.633Z,39.1
2018-10-07T04:00:38.180Z,39.6
2018-10-07T04:01:39.730Z,40.1
2018-10-07T04:02:41.124Z,40.6
2018-10-07T04:03:42.497Z,39.6
2018-10-07T04:04:43.861Z,39.1
2018-10-07T04:05:45.232Z,40.1
2018-10-07T04:06:46.797Z,39.1
2018-10-07T04:07:48.189Z,39.6
2018-10-07T04:08:49.750Z,39.6
2018-10-07T04:09:51.300Z,39.6
2018-10-07T04:10:52.346Z,40.1
2018-10-07T04:11:53.894Z,39.1
2018-10-07T04:12:55.266Z,39.1
2018-10-07T04:13:57.026Z,38.6
2018-10-07T04:14:58.560Z,39.1
2018-10-07T04:16:00.103Z,39.1
2018-10-07T04:17:01.664Z,39.1
2018-10-07T04:18:03.219Z,39.6
2018-10-07T04:19:04.796Z,39.1
2018-10-07T04:20:06.333Z,38.6
2018-10-07T04:21:07.885Z,39.1
2018-10-07T04:22:09.477Z,38.6
2018-10-07T04:23:11.010Z,38.6
2018-10-07T04:24:12.556Z,38.6
2018-10-07T04:25:13.926Z,39.1
2018-10-07T04:26:15.470Z,39.1
2018-10-07T04:27:17.016Z,38.6
2018-10-07T04:28:18.545Z,38.1
2018-10-07T04:29:20.103Z,39.1
2018-10-07T04:30:21.657Z,38.6
2018-10-07T04:31:23.207Z,38.6
2018-10-07T04:32:24.416Z,37.6
2018-10-07T04:33:25.960Z,38.6
2018-10-07T04:34:27.515Z,39.1
2018-10-07T04:35:29.101Z,38.1
2018-10-07T04:36:30.665Z,38.1
2018-10-07T04:37:32.040Z,38.6
2018-10-07T04:38:33.610Z,38.1
2018-10-07T04:39:35.170Z,38.1
2018-10-07T04:40:36.781Z,38.6
2018-10-07T04:41:38.161Z,38.1
2018-10-07T04:42:39.710Z,37.6
2018-10-07T04:43:41.253Z,37.6
2018-10-07T04:44:42.797Z,38.1
2018-10-07T04:45:44.188Z,38.1
2018-10-07T04:46:45.805Z,38.6
2018-10-07T04:47:47.370Z,38.6
2018-10-07T04:48:48.601Z,37.6
2018-10-07T04:49:49.810Z,37.6
2018-10-07T04:50:51.209Z,38.1
2018-10-07T04:51:52.610Z,38.1
2018-10-07T04:52:53.978Z,37.6
2018-10-07T04:53:55.558Z,38.6
2018-10-07T04:54:56.940Z,38.1
2018-10-07T04:55:58.481Z,37.6
2018-10-07T04:57:00.020Z,38.1
2018-10-07T04:58:01.470Z,38.6
2018-10-07T04:59:03.052Z,38.1
2018-10-07T05:00:04.905Z,38.6
2018-10-07T05:01:06.430Z,38.1
2018-10-07T05:02:07.987Z,38.1
2018-10-07T05:03:09.550Z,37.1
2018-10-07T05:04:11.097Z,37.6
2018-10-07T05:05:12.321Z,37.6
2018-10-07T05:06:13.874Z,38.1
2018-10-07T05:07:15.424Z,37.6
2018-10-07T05:08:16.996Z,38.1
2018-10-07T05:09:18.569Z,37.6
2018-10-07T05:10:20.130Z,37.6
2018-10-07T05:11:21.692Z,38.1
2018-10-07T05:12:23.460Z,38.1
2018-10-07T05:13:25.097Z,38.1
2018-10-07T05:14:26.490Z,38.1
2018-10-07T05:15:28.074Z,37.6
2018-10-07T05:16:29.477Z,37.6
2018-10-07T05:17:31.076Z,37.1
2018-10-07T05:18:32.681Z,37.1
2018-10-07T05:19:34.272Z,37.1
2018-10-07T05:20:35.867Z,37.6
2018-10-07T05:21:37.458Z,37.6
2018-10-07T05:22:38.880Z,37.6
2018-10-07T05:23:40.281Z,37.6
2018-10-07T05:24:41.855Z,37.6
2018-10-07T05:25:43.252Z,37.1
2018-10-07T05:26:44.816Z,37.1
2018-10-07T05:27:46.409Z,38.1
2018-10-07T05:28:47.978Z,37.6
2018-10-07T05:29:49.553Z,37.6
2018-10-07T05:30:51.149Z,37.6
2018-10-07T05:32:07.573Z,38.1
2018-10-07T05:33:09.430Z,38.1
2018-10-07T05:34:11.139Z,37.6
2018-10-07T05:35:12.521Z,38.6
2018-10-07T05:36:14.069Z,38.1
2018-10-07T05:37:15.455Z,39.6
2018-10-07T05:38:17.020Z,39.6
2018-10-07T05:39:18.638Z,39.1
2018-10-07T05:40:19.870Z,40.1
2018-10-07T05:41:21.438Z,39.6
2018-10-07T05:42:22.998Z,40.6
2018-10-07T05:43:24.554Z,39.6
2018-10-07T05:44:27.104Z,39.6
2018-10-07T05:45:28.856Z,40.1
2018-10-07T05:46:30.419Z,40.1
2018-10-07T05:47:31.959Z,39.6
2018-10-07T05:48:33.510Z,39.6
2018-10-07T05:49:35.072Z,40.1
2018-10-07T05:50:36.608Z,39.6
2018-10-07T05:51:38.318Z,39.6
2018-10-07T05:52:39.939Z,39.6
2018-10-07T05:53:41.497Z,40.1
2018-10-07T05:54:43.070Z,39.6
2018-10-07T05:55:45.025Z,39.6
2018-10-07T05:56:46.827Z,39.1
2018-10-07T05:57:48.384Z,39.6
2018-10-07T05:58:49.776Z,39.6
2018-10-07T05:59:51.361Z,40.1
2018-10-07T06:00:52.932Z,39.6
2018-10-07T06:01:55.227Z,39.6
2018-10-07T06:02:57.179Z,39.1
2018-10-07T06:03:58.578Z,40.1
2018-10-07T06:05:00.188Z,39.6
2018-10-07T06:06:01.740Z,39.6
2018-10-07T06:07:03.301Z,39.6
2018-10-07T06:08:04.851Z,40.1
2018-10-07T06:09:06.423Z,39.6
2018-10-07T06:10:07.969Z,40.1
2018-10-07T06:11:09.369Z,39.6
2018-10-07T06:12:10.927Z,39.6
2018-10-07T06:13:12.489Z,39.1
2018-10-07T06:14:14.033Z,39.6
2018-10-07T06:15:15.436Z,39.6
2018-10-07T06:16:17.010Z,38.6
2018-10-07T06:17:18.431Z,39.1
2018-10-07T06:18:20.019Z,39.6
2018-10-07T06:19:21.421Z,39.1
2018-10-07T06:20:22.980Z,39.1
2018-10-07T06:21:24.777Z,39.6
2018-10-07T06:22:26.385Z,39.6
2018-10-07T06:23:27.801Z,38.6
2018-10-07T06:24:29.190Z,38.6
2018-10-07T06:25:30.765Z,38.6
2018-10-07T06:26:32.445Z,38.6
2018-10-07T06:27:34.086Z,39.1
2018-10-07T06:28:35.320Z,39.6
2018-10-07T06:29:37.031Z,39.1
2018-10-07T06:30:38.330Z,38.6
2018-10-07T06:31:39.880Z,38.1
2018-10-07T06:32:41.448Z,38.1
2018-10-07T06:33:43.055Z,38.1
2018-10-07T06:34:44.472Z,38.1
2018-10-07T06:35:46.010Z,38.6
2018-10-07T06:36:47.580Z,38.1
2018-10-07T06:37:49.143Z,38.6
2018-10-07T06:38:51.383Z,39.1
2018-10-07T06:39:53.090Z,39.1
2018-10-07T06:40:54.969Z,38.1
2018-10-07T06:41:56.354Z,37.6
2018-10-07T06:42:57.932Z,39.1
2018-10-07T06:43:59.485Z,38.6
2018-10-07T06:45:00.882Z,37.6
2018-10-07T06:46:02.116Z,38.1
2018-10-07T06:47:03.692Z,37.6
2018-10-07T06:48:05.260Z,38.6
2018-10-07T06:49:06.810Z,38.6
2018-10-07T06:50:08.380Z,38.6
2018-10-07T06:51:09.942Z,37.6
2018-10-07T06:52:11.322Z,38.6
2018-10-07T06:53:12.710Z,38.1
2018-10-07T06:54:14.331Z,38.6
2018-10-07T06:55:15.886Z,37.6
2018-10-07T06:56:17.281Z,37.1
2018-10-07T06:57:18.826Z,37.1
2018-10-07T06:58:20.392Z,38.1
2018-10-07T06:59:21.941Z,37.6
2018-10-07T07:00:23.517Z,37.6
2018-10-07T07:01:25.081Z,37.6
2018-10-07T07:02:26.481Z,37.6
2018-10-07T07:03:28.053Z,37.1
2018-10-07T07:04:29.611Z,38.1
2018-10-07T07:05:31.160Z,37.1
2018-10-07T07:06:33.241Z,37.6
2018-10-07T07:07:35.292Z,37.1
2018-10-07T07:08:36.849Z,37.6
2018-10-07T07:09:38.393Z,37.1
2018-10-07T07:10:39.958Z,38.1
2018-10-07T07:11:41.365Z,37.1
2018-10-07T07:12:42.926Z,37.1
2018-10-07T07:13:44.336Z,37.1
2018-10-07T07:14:45.559Z,37.6
2018-10-07T07:15:47.109Z,38.1
2018-10-07T07:16:48.525Z,37.1
2018-10-07T07:17:49.751Z,37.6
2018-10-07T07:18:51.311Z,37.1
2018-10-07T07:19:53.354Z,38.1
2018-10-07T07:20:55.290Z,38.1
2018-10-07T07:21:56.530Z,38.1
2018-10-07T07:22:58.136Z,38.1
2018-10-07T07:23:59.698Z,38.6
2018-10-07T07:25:01.129Z,38.6
2018-10-07T07:26:02.696Z,38.1
2018-10-07T07:27:04.084Z,38.6
2018-10-07T07:28:05.652Z,38.6
2018-10-07T07:29:07.209Z,38.6
2018-10-07T07:30:08.589Z,39.6
2018-10-07T07:31:10.178Z,39.1
2018-10-07T07:32:11.745Z,39.1
2018-10-07T07:33:13.291Z,39.1
2018-10-07T07:34:14.859Z,39.6
2018-10-07T07:35:16.421Z,39.1
2018-10-07T07:36:17.820Z,39.6
2018-10-07T07:37:19.383Z,39.1
2018-10-07T07:38:20.797Z,39.1
2018-10-07T07:39:22.378Z,39.6
2018-10-07T07:40:23.788Z,39.6
2018-10-07T07:41:25.362Z,39.1
2018-10-07T07:42:27.273Z,39.6
2018-10-07T07:43:28.995Z,39.6
2018-10-07T07:44:30.574Z,39.6
2018-10-07T07:45:32.137Z,39.1
2018-10-07T07:46:33.719Z,40.1
2018-10-07T07:47:35.291Z,39.6
2018-10-07T07:48:36.504Z,39.6
2018-10-07T07:49:37.906Z,39.6
2018-10-07T07:50:39.353Z,40.1
2018-10-07T07:51:40.750Z,39.6
2018-10-07T07:52:42.120Z,38.6
2018-10-07T07:53:43.689Z,39.1
2018-10-07T07:54:45.091Z,38.6
2018-10-07T07:55:46.670Z,39.6
2018-10-07T07:56:48.077Z,39.1
2018-10-07T07:57:49.318Z,39.6
2018-10-07T07:58:50.723Z,39.6
2018-10-07T07:59:52.274Z,39.6
2018-10-07T08:00:53.837Z,39.6
2018-10-07T08:01:55.394Z,39.1
2018-10-07T08:02:56.788Z,40.1
2018-10-07T08:03:58.351Z,39.1
2018-10-07T08:04:59.745Z,39.6
2018-10-07T08:06:01.152Z,39.6
2018-10-07T08:07:02.721Z,38.6
2018-10-07T08:08:04.290Z,38.6
2018-10-07T08:09:05.540Z,39.1
2018-10-07T08:10:06.950Z,39.1
2018-10-07T08:11:08.509Z,38.1
2018-10-07T08:12:10.083Z,38.6
2018-10-07T08:13:11.665Z,38.6
2018-10-07T08:14:13.215Z,39.1
2018-10-07T08:15:14.776Z,38.6
2018-10-07T08:16:16.345Z,38.6
2018-10-07T08:17:17.894Z,38.1
2018-10-07T08:18:19.434Z,38.6
2018-10-07T08:19:20.996Z,38.1
2018-10-07T08:20:22.579Z,38.6
2018-10-07T08:21:23.991Z,38.6
2018-10-07T08:22:25.561Z,39.1
2018-10-07T08:23:27.278Z,38.6
2018-10-07T08:24:28.387Z,38.1
2018-10-07T08:25:29.964Z,38.1
2018-10-07T08:26:31.540Z,38.6
2018-10-07T08:27:33.129Z,38.6
2018-10-07T08:28:34.557Z,38.1
2018-10-07T08:29:35.867Z,38.1
2018-10-07T08:30:37.429Z,38.1
2018-10-07T08:31:39.020Z,38.1
2018-10-07T08:32:40.453Z,38.6
2018-10-07T08:33:41.849Z,38.1
2018-10-07T08:34:43.233Z,38.1
2018-10-07T08:35:44.799Z,38.1
2018-10-07T08:36:46.360Z,37.6
2018-10-07T08:37:47.971Z,38.6
2018-10-07T08:38:49.526Z,37.6
2018-10-07T08:39:51.328Z,38.1
2018-10-07T08:40:52.737Z,38.1
2018-10-07T08:41:54.286Z,38.1
2018-10-07T08:42:55.903Z,37.6
2018-10-07T08:43:57.298Z,37.6
2018-10-07T08:44:58.869Z,38.6
2018-10-07T08:46:00.440Z,37.6
2018-10-07T08:47:01.979Z,37.1
2018-10-07T08:48:03.553Z,37.6
2018-10-07T08:49:05.110Z,36.7
2018-10-07T08:50:06.490Z,37.6
2018-10-07T08:51:07.871Z,37.1
2018-10-07T08:52:09.436Z,37.6
2018-10-07T08:53:10.677Z,37.6
2018-10-07T08:54:12.234Z,37.6
2018-10-07T08:55:13.456Z,38.1
2018-10-07T08:56:15.490Z,37.1
2018-10-07T08:57:16.797Z,37.1
2018-10-07T08:58:18.358Z,37.6
2018-10-07T08:59:19.912Z,38.1
2018-10-07T09:00:21.464Z,37.6
2018-10-07T09:01:22.869Z,37.6
2018-10-07T09:02:24.462Z,37.6
2018-10-07T09:03:26.041Z,38.1
2018-10-07T09:04:27.608Z,37.6
2018-10-07T09:05:29.172Z,38.6
2018-10-07T09:06:30.749Z,37.6
2018-10-07T09:07:32.418Z,38.6
2018-10-07T09:08:34.069Z,38.6
2018-10-07T09:09:35.640Z,38.6
2018-10-07T09:10:37.187Z,38.1
2018-10-07T09:11:38.752Z,38.6
2018-10-07T09:12:40.328Z,39.1
2018-10-07T09:13:41.915Z,38.6
2018-10-07T09:14:43.959Z,39.6
2018-10-07T09:15:45.340Z,39.1
2018-10-07T09:16:46.935Z,39.6
2018-10-07T09:17:48.518Z,39.6
2018-10-07T09:18:50.100Z,39.6
2018-10-07T09:19:51.332Z,39.6
2018-10-07T09:20:52.926Z,39.1
2018-10-07T09:21:54.376Z,39.6
2018-10-07T09:22:55.766Z,39.1
2018-10-07T09:23:57.351Z,39.1
2018-10-07T09:24:58.918Z,39.1
2018-10-07T09:26:00.499Z,39.1
2018-10-07T09:27:02.480Z,39.6
2018-10-07T09:28:18.992Z,40.1
2018-10-07T09:29:20.569Z,40.1
2018-10-07T09:30:21.969Z,39.6
2018-10-07T09:31:23.553Z,40.1
2018-10-07T09:32:25.510Z,39.1
2018-10-07T09:33:27.406Z,40.6
2018-10-07T09:34:28.971Z,40.1
2018-10-07T09:35:30.381Z,39.6
2018-10-07T09:36:31.944Z,39.6
2018-10-07T09:37:33.690Z,40.1
2018-10-07T09:38:35.179Z,39.6
2018-10-07T09:39:36.910Z,40.6
2018-10-07T09:40:38.584Z,39.1
2018-10-07T09:41:40.121Z,40.1
2018-10-07T09:42:41.697Z,40.1
2018-10-07T09:43:43.292Z,40.1
2018-10-07T09:44:44.866Z,39.6
2018-10-07T09:45:46.278Z,39.1
2018-10-07T09:46:47.837Z,39.1
2018-10-07T09:47:49.092Z,39.6
2018-10-07T09:48:50.660Z,39.1
2018-10-07T09:49:52.221Z,39.6
2018-10-07T09:50:53.792Z,39.1
2018-10-07T09:51:55.353Z,38.6
2018-10-07T09:52:56.752Z,38.6
2018-10-07T09:53:58.313Z,38.6
2018-10-07T09:54:59.719Z,39.1
2018-10-07T09:56:01.128Z,38.6
2018-10-07T09:57:02.705Z,38.6
2018-10-07T09:58:04.568Z,39.1
2018-10-07T09:59:06.490Z,39.6
2018-10-07T10:00:08.120Z,39.1
2018-10-07T10:01:09.968Z,39.1
2018-10-07T10:02:11.480Z,38.6
2018-10-07T10:03:12.876Z,38.1
2018-10-07T10:04:15.172Z,39.1
2018-10-07T10:05:17.109Z,38.6
2018-10-07T10:06:18.748Z,38.6
2018-10-07T10:07:20.317Z,38.1
2018-10-07T10:08:21.927Z,38.1
2018-10-07T10:09:23.505Z,38.1
2018-10-07T10:10:25.076Z,38.1
2018-10-07T10:11:27.007Z,38.6
2018-10-07T10:12:28.570Z,38.6
2018-10-07T10:13:30.122Z,38.6
2018-10-07T10:14:31.703Z,37.6
2018-10-07T10:15:33.290Z,37.1
2018-10-07T10:16:34.956Z,38.6
2018-10-07T10:17:36.938Z,38.1
2018-10-07T10:18:38.897Z,37.6
2018-10-07T10:19:40.618Z,39.1
2018-10-07T10:20:42.421Z,38.1
2018-10-07T10:21:44.004Z,38.1
2018-10-07T10:22:45.561Z,38.1
2018-10-07T10:23:47.152Z,37.6
2018-10-07T10:24:48.754Z,38.1
2018-10-07T10:25:50.171Z,38.1
2018-10-07T10:26:51.719Z,38.1
2018-10-07T10:27:53.272Z,38.1
2018-10-07T10:28:54.823Z,37.6
2018-10-07T10:29:56.388Z,37.6
2018-10-07T10:30:57.947Z,38.1
2018-10-07T10:31:59.338Z,37.6
2018-10-07T10:33:00.927Z,37.6
2018-10-07T10:34:02.530Z,38.1
2018-10-07T10:35:04.007Z,37.6
2018-10-07T10:36:05.591Z,37.6
2018-10-07T10:37:06.998Z,37.6
2018-10-07T10:38:08.382Z,37.6
2018-10-07T10:39:09.889Z,38.1
2018-10-07T10:40:11.663Z,38.1
2018-10-07T10:41:13.235Z,37.6
2018-10-07T10:42:14.816Z,38.1
2018-10-07T10:43:16.382Z,37.6
2018-10-07T10:44:17.954Z,37.6
2018-10-07T10:45:19.620Z,37.1
2018-10-07T10:46:21.344Z,37.1
2018-10-07T10:47:22.924Z,38.1
2018-10-07T10:48:24.483Z,37.6
2018-10-07T10:49:26.072Z,38.1
2018-10-07T10:50:27.488Z,37.6
2018-10-07T10:51:29.091Z,38.1
2018-10-07T10:52:30.509Z,38.6
2018-10-07T10:53:32.098Z,39.1
2018-10-07T10:54:33.671Z,38.6
2018-10-07T10:55:35.076Z,39.1
2018-10-07T10:56:36.640Z,38.6
2018-10-07T10:57:38.202Z,39.1
2018-10-07T10:58:39.771Z,39.6
2018-10-07T10:59:41.342Z,38.6
2018-10-07T11:00:42.804Z,39.6
2018-10-07T11:01:44.207Z,39.1
2018-10-07T11:02:45.784Z,39.6
2018-10-07T11:03:47.355Z,39.1
2018-10-07T11:04:48.922Z,39.6
2018-10-07T11:05:50.489Z,39.1
2018-10-07T11:06:52.080Z,39.6
2018-10-07T11:07:53.664Z,39.1
2018-10-07T11:08:55.236Z,39.1
2018-10-07T11:09:56.622Z,39.6
2018-10-07T11:10:58.195Z,39.6
2018-10-07T11:11:59.593Z,39.6
2018-10-07T11:13:01.164Z,40.1
2018-10-07T11:14:02.572Z,39.6
2018-10-07T11:15:03.979Z,39.6
2018-10-07T11:16:05.388Z,39.1
2018-10-07T11:17:06.973Z,39.1
2018-10-07T11:18:08.541Z,40.1
2018-10-07T11:19:10.082Z,39.6
2018-10-07T11:20:11.489Z,39.1
2018-10-07T11:21:12.922Z,39.6
2018-10-07T11:22:14.497Z,40.6
2018-10-07T11:23:16.064Z,39.1
2018-10-07T11:24:17.463Z,39.6
2018-10-07T11:25:18.904Z,39.1
2018-10-07T11:26:20.744Z,40.1
2018-10-07T11:27:22.320Z,39.6
2018-10-07T11:28:23.885Z,38.6
2018-10-07T11:29:25.487Z,40.1
2018-10-07T11:30:27.052Z,39.1
2018-10-07T11:31:28.282Z,39.1
2018-10-07T11:32:29.850Z,39.1
2018-10-07T11:33:31.232Z,38.6
2018-10-07T11:34:32.795Z,39.1
2018-10-07T11:35:34.313Z,39.6
2018-10-07T11:36:35.971Z,38.1
2018-10-07T11:37:37.589Z,38.6
2018-10-07T11:38:39.181Z,38.6
2018-10-07T11:39:40.417Z,38.6
2018-10-07T11:40:42.120Z,39.1
2018-10-07T11:41:43.813Z,39.1
2018-10-07T11:42:45.201Z,38.6
2018-10-07T11:43:46.603Z,38.6
2018-10-07T11:44:47.988Z,38.6
2018-10-07T11:45:49.543Z,38.6
2018-10-07T11:46:51.180Z,38.1
2018-10-07T11:47:52.568Z,38.6
2018-10-07T11:48:54.188Z,37.6
2018-10-07T11:49:55.745Z,38.1
2018-10-07T11:50:57.156Z,38.1
2018-10-07T11:51:58.713Z,38.1
2018-10-07T11:53:00.431Z,39.1
2018-10-07T11:54:02.008Z,38.6
2018-10-07T11:55:03.570Z,38.1
2018-10-07T11:56:04.987Z,38.1
2018-10-07T11:57:06.396Z,38.6
2018-10-07T11:58:07.958Z,38.6
2018-10-07T11:59:09.367Z,37.6
2018-10-07T12:00:10.755Z,37.6
2018-10-07T12:01:12.339Z,38.6
2018-10-07T12:02:14.145Z,37.1
2018-10-07T12:03:15.911Z,37.1
2018-10-07T12:04:17.323Z,38.1
2018-10-07T12:05:18.880Z,37.6
2018-10-07T12:06:20.453Z,38.1
2018-10-07T12:07:22.030Z,37.6
2018-10-07T12:08:23.590Z,38.1
2018-10-07T12:09:39.510Z,37.6
2018-10-07T12:10:41.090Z,38.1
2018-10-07T12:11:42.479Z,38.1
2018-10-07T12:12:44.037Z,38.1
2018-10-07T12:13:45.611Z,38.1
2018-10-07T12:14:47.184Z,37.6
2018-10-07T12:15:48.785Z,38.1
2018-10-07T12:16:50.349Z,37.6
2018-10-07T12:17:51.590Z,38.1
2018-10-07T12:18:53.166Z,37.6
2018-10-07T12:19:54.733Z,37.6
2018-10-07T12:20:56.126Z,38.1
2018-10-07T12:21:57.705Z,38.6
2018-10-07T12:22:59.261Z,38.1
2018-10-07T12:24:00.651Z,38.6
2018-10-07T12:25:02.231Z,39.1
2018-10-07T12:26:03.630Z,39.1
2018-10-07T12:27:05.181Z,38.1
2018-10-07T12:28:06.445Z,39.1
2018-10-07T12:29:08.724Z,38.6
2018-10-07T12:30:10.200Z,38.6
2018-10-07T12:31:11.759Z,39.6
2018-10-07T12:32:13.317Z,39.1
2018-10-07T12:33:14.899Z,39.1
2018-10-07T12:34:16.464Z,40.1
2018-10-07T12:35:18.019Z,39.6
2018-10-07T12:36:19.596Z,39.1
2018-10-07T12:37:21.174Z,39.6
2018-10-07T12:38:22.731Z,40.1
2018-10-07T12:39:24.159Z,40.1
2018-10-07T12:40:25.726Z,40.1
2018-10-07T12:41:27.302Z,39.6
2018-10-07T12:42:28.924Z,39.6
2018-10-07T12:43:30.342Z,39.6
2018-10-07T12:44:31.579Z,39.6
2018-10-07T12:45:32.968Z,39.6
2018-10-07T12:46:34.391Z,40.1
2018-10-07T12:47:35.797Z,39.6
2018-10-07T12:48:37.383Z,40.1
2018-10-07T12:49:38.930Z,40.1
2018-10-07T12:50:40.505Z,39.6
2018-10-07T12:51:42.075Z,40.1
2018-10-07T12:52:43.474Z,39.6
2018-10-07T12:53:45.065Z,40.1
2018-10-07T12:54:46.452Z,40.1
2018-10-07T12:55:48.031Z,39.6
2018-10-07T12:56:49.435Z,39.6
2018-10-07T12:57:51.004Z,39.6
2018-10-07T12:58:52.581Z,40.1
2018-10-07T12:59:54.182Z,39.6
2018-10-07T13:00:55.740Z,39.6
2018-10-07T13:01:57.333Z,39.6
2018-10-07T13:02:58.908Z,39.6
2018-10-07T13:04:00.309Z,39.6
2018-10-07T13:05:01.913Z,39.6
2018-10-07T13:06:03.332Z,40.1
2018-10-07T13:07:04.940Z,39.6
2018-10-07T13:08:06.422Z,39.6
2018-10-07T13:09:07.981Z,39.6
2018-10-07T13:10:09.536Z,39.6
2018-10-07T13:11:11.103Z,39.1
2018-10-07T13:12:12.714Z,39.6
2018-10-07T13:13:14.288Z,38.6
2018-10-07T13:14:15.519Z,39.6
2018-10-07T13:15:17.099Z,39.6
2018-10-07T13:16:18.531Z,39.1
2018-10-07T13:17:20.107Z,39.1
2018-10-07T13:18:21.509Z,38.6
2018-10-07T13:19:23.680Z,38.6
2018-10-07T13:20:25.637Z,38.6
2018-10-07T13:21:27.197Z,39.1
2018-10-07T13:22:28.432Z,38.6
2018-10-07T13:23:29.677Z,39.1
2018-10-07T13:24:31.060Z,38.1
2018-10-07T13:25:32.284Z,39.1
2018-10-07T13:26:33.689Z,38.1
2018-10-07T13:27:49.990Z,38.6
2018-10-07T13:28:51.590Z,38.1
2018-10-07T13:29:53.148Z,39.1
2018-10-07T13:30:54.702Z,39.1
2018-10-07T13:31:56.285Z,37.6
2018-10-07T13:32:57.761Z,38.1
2018-10-07T13:33:59.443Z,38.6
2018-10-07T13:35:00.900Z,39.1
2018-10-07T13:36:02.509Z,38.1
2018-10-07T13:37:04.072Z,38.6
2018-10-07T13:38:05.471Z,38.6
2018-10-07T13:39:07.272Z,39.1
2018-10-07T13:40:09.243Z,38.6